createdAt,value
2022-08-22T00:02:51.759Z,8
2022-08-22T00:06:07.750Z,12
2022-08-22T00:08:51.007Z,13
2022-08-22T00:11:23.899Z,13
2022-08-22T00:14:03.101Z,12
2022-08-22T00:16:36.081Z,13
2022-08-22T00:19:08.570Z,12
2022-08-22T00:21:41.320Z,13
2022-08-22T00:24:14.303Z,12
2022-08-22T00:26:47.008Z,12
2022-08-22T00:29:19.629Z,16
2022-08-22T00:31:59.756Z,12
2022-08-22T00:34:32.877Z,12
2022-08-22T00:37:05.619Z,16
2022-08-22T00:39:38.812Z,16
2022-08-22T00:42:11.668Z,16
2022-08-22T00:44:46.208Z,16
2022-08-22T00:47:19.338Z,16
2022-08-22T00:49:52.159Z,12
2022-08-22T00:52:24.978Z,16
2022-08-22T00:54:57.612Z,12
2022-08-22T00:57:30.272Z,12
2022-08-22T01:00:03.213Z,12
2022-08-22T01:02:35.834Z,12
2022-08-22T01:05:08.207Z,16
2022-08-22T01:07:40.772Z,16
2022-08-22T01:10:13.310Z,16
2022-08-22T01:12:46.174Z,16
2022-08-22T01:15:17.499Z,12
2022-08-22T01:17:50.256Z,16
2022-08-22T01:20:22.829Z,16
2022-08-22T01:22:56.011Z,16
2022-08-22T01:25:27.797Z,15
2022-08-22T01:28:00.250Z,16
2022-08-22T01:30:33.876Z,16
2022-08-22T01:33:07.858Z,13
2022-08-22T01:35:39.822Z,16
2022-08-22T01:38:11.642Z,16
2022-08-22T01:40:53.328Z,16
2022-08-22T01:43:51.530Z,12
2022-08-22T01:46:31.193Z,12
2022-08-22T01:49:03.424Z,12
2022-08-22T01:51:35.800Z,15
2022-08-22T01:54:07.887Z,20
2022-08-22T01:56:40.138Z,16
2022-08-22T01:59:12.764Z,12
2022-08-22T02:01:45.349Z,16
2022-08-22T02:04:17.889Z,16
2022-08-22T02:06:50.640Z,13
2022-08-22T02:09:23.458Z,16
2022-08-22T02:11:56.349Z,12
2022-08-22T02:14:28.653Z,16
2022-08-22T02:17:01.455Z,13
2022-08-22T02:19:34.400Z,16
2022-08-22T02:22:07.580Z,12
2022-08-22T02:24:40.351Z,8
2022-08-22T02:27:12.929Z,12
2022-08-22T02:29:45.668Z,16
2022-08-22T02:32:17.956Z,8
2022-08-22T02:34:50.746Z,9
2022-08-22T02:37:24.012Z,12
2022-08-22T02:39:56.598Z,12
2022-08-22T02:42:29.271Z,16
2022-08-22T02:45:02.447Z,12
2022-08-22T02:47:35.164Z,14
2022-08-22T02:50:12.175Z,19
2022-08-22T02:52:52.820Z,15
2022-08-22T02:55:25.004Z,15
2022-08-22T02:57:59.847Z,16
2022-08-22T03:00:33.358Z,16
2022-08-22T03:03:05.319Z,16
2022-08-22T03:05:37.622Z,16
2022-08-22T03:08:10.294Z,16
2022-08-22T03:10:44.713Z,12
2022-08-22T03:13:17.458Z,16
2022-08-22T03:15:53.723Z,16
2022-08-22T03:18:26.443Z,17
2022-08-22T03:20:58.888Z,16
2022-08-22T03:23:31.654Z,16
2022-08-22T03:26:08.757Z,16
2022-08-22T03:28:52.830Z,16
2022-08-22T03:31:31.054Z,16
2022-08-22T03:34:03.727Z,16
2022-08-22T03:36:36.348Z,18
2022-08-22T03:39:12.307Z,16
2022-08-22T03:41:48.400Z,16
2022-08-22T03:44:21.244Z,18
2022-08-22T03:46:54.087Z,16
2022-08-22T03:49:26.744Z,16
2022-08-22T03:51:59.292Z,16
2022-08-22T03:54:31.858Z,16
2022-08-22T03:57:04.637Z,16
2022-08-22T03:59:37.203Z,16
2022-08-22T04:02:24.972Z,12
2022-08-22T04:05:14.685Z,12
2022-08-22T04:07:52.349Z,11
2022-08-22T04:10:24.930Z,8
2022-08-22T04:12:57.639Z,8
2022-08-22T04:15:30.091Z,8
2022-08-22T04:18:02.864Z,8
2022-08-22T04:20:36.886Z,11
2022-08-22T04:23:09.573Z,12
2022-08-22T04:25:42.097Z,14
2022-08-22T04:28:15.367Z,12
2022-08-22T04:30:48.110Z,12
2022-08-22T04:33:20.757Z,11
2022-08-22T04:35:53.560Z,12
2022-08-22T04:38:26.404Z,12
2022-08-22T04:41:02.568Z,8
2022-08-22T04:43:35.722Z,8
2022-08-22T04:46:10.166Z,4
2022-08-22T04:48:43.899Z,8
2022-08-22T04:51:16.624Z,13
2022-08-22T04:53:49.551Z,12
2022-08-22T04:56:22.181Z,8
2022-08-22T04:58:54.804Z,8
2022-08-22T05:01:28.260Z,8
2022-08-22T05:04:01.202Z,8
2022-08-22T05:06:31.181Z,8
2022-08-22T05:09:02.839Z,8
2022-08-22T05:11:35.348Z,12
2022-08-22T05:14:06.936Z,12
2022-08-22T05:16:39.733Z,12
2022-08-22T05:19:16.123Z,42
2022-08-22T05:22:02.438Z,16
2022-08-22T05:24:35.491Z,15
2022-08-22T05:27:07.634Z,12
2022-08-22T05:29:39.932Z,12
2022-08-22T05:32:12.431Z,12
2022-08-22T05:34:45.037Z,12
2022-08-22T05:37:17.346Z,12
2022-08-22T05:39:50.543Z,12
2022-08-22T05:42:23.512Z,12
2022-08-22T05:44:56.312Z,12
2022-08-22T05:47:28.828Z,12
2022-08-22T05:50:01.566Z,12
2022-08-22T05:52:34.233Z,16
2022-08-22T05:55:06.928Z,12
2022-08-22T05:57:40.044Z,12
2022-08-22T06:00:12.321Z,12
2022-08-22T06:02:45.101Z,12
2022-08-22T06:05:17.739Z,12
2022-08-22T06:07:51.435Z,12
2022-08-22T06:10:24.191Z,12
2022-08-22T06:12:58.538Z,16
2022-08-22T06:15:31.679Z,16
2022-08-22T06:18:06.565Z,12
2022-08-22T06:20:39.284Z,15
2022-08-22T06:23:11.758Z,16
2022-08-22T06:25:51.095Z,16
2022-08-22T06:28:26.339Z,15
2022-08-22T06:31:01.967Z,16
2022-08-22T06:33:36.449Z,12
2022-08-22T06:36:08.839Z,15
2022-08-22T06:38:41.335Z,12
2022-08-22T06:41:13.999Z,12
2022-08-22T06:43:46.660Z,12
2022-08-22T06:46:18.864Z,12
2022-08-22T06:48:50.992Z,12
2022-08-22T06:51:24.159Z,13
2022-08-22T06:53:56.469Z,11
2022-08-22T06:56:28.840Z,12
2022-08-22T06:59:02.855Z,12
2022-08-22T07:01:35.777Z,10
2022-08-22T07:04:08.745Z,13
2022-08-22T07:06:41.667Z,16
2022-08-22T07:09:14.721Z,12
2022-08-22T07:11:47.178Z,16
2022-08-22T07:14:19.798Z,20
2022-08-22T07:16:52.652Z,16
2022-08-22T07:19:25.520Z,16
2022-08-22T07:21:56.010Z,14
2022-08-22T07:24:28.440Z,19
2022-08-22T07:27:00.917Z,14
2022-08-22T07:29:38.464Z,12
2022-08-22T07:32:12.104Z,20
2022-08-22T07:34:46.710Z,17
2022-08-22T07:37:19.140Z,12
2022-08-22T07:39:51.945Z,8
2022-08-22T07:42:30.137Z,12
2022-08-22T07:45:02.141Z,11
2022-08-22T07:47:33.388Z,12
2022-08-22T07:50:05.959Z,8
2022-08-22T07:52:38.588Z,12
2022-08-22T07:55:11.339Z,11
2022-08-22T07:57:45.311Z,12
2022-08-22T08:00:17.823Z,8
2022-08-22T08:02:50.607Z,9
2022-08-22T08:05:23.177Z,16
2022-08-22T08:07:55.754Z,8
2022-08-22T08:10:28.209Z,8
2022-08-22T08:13:02.662Z,8
2022-08-22T08:15:34.518Z,8
2022-08-22T08:18:07.400Z,12
2022-08-22T08:20:40.102Z,8
2022-08-22T08:23:12.640Z,12
2022-08-22T08:25:48.101Z,10
2022-08-22T08:28:24.877Z,8
2022-08-22T08:30:59.443Z,12
2022-08-22T08:33:31.981Z,8
2022-08-22T08:36:04.818Z,8
2022-08-22T08:38:37.397Z,8
2022-08-22T08:41:09.915Z,12
2022-08-22T08:43:44.788Z,8
2022-08-22T08:46:17.028Z,8
2022-08-22T08:48:53.481Z,8
2022-08-22T08:51:26.431Z,12
2022-08-22T08:53:59.163Z,10
2022-08-22T08:56:33.103Z,8
2022-08-22T08:59:10.172Z,10
2022-08-22T09:01:43.016Z,11
2022-08-22T09:04:15.738Z,12
2022-08-22T09:42:54.827Z,8
2022-08-22T09:45:34.881Z,11
2022-08-22T09:48:07.933Z,8
2022-08-22T09:50:42.358Z,9
2022-08-22T09:53:18.071Z,9
2022-08-22T09:55:51.521Z,8
2022-08-22T09:58:27.867Z,8
2022-08-22T10:01:13.270Z,8
2022-08-22T10:03:45.966Z,11
2022-08-22T10:06:24.841Z,8
2022-08-22T10:08:57.619Z,8
2022-08-22T10:11:30.433Z,8
2022-08-22T10:14:04.937Z,8
2022-08-22T10:16:37.528Z,8
2022-08-22T10:19:11.598Z,8
2022-08-22T10:21:44.330Z,8
2022-08-22T10:24:24.631Z,8
2022-08-22T10:26:57.591Z,8
2022-08-22T10:29:35.795Z,8
2022-08-22T10:32:14.678Z,8
2022-08-22T10:34:47.200Z,11
2022-08-22T10:37:23.547Z,8
2022-08-22T10:39:55.487Z,12
2022-08-22T10:42:28.648Z,16
2022-08-22T10:45:08.156Z,15
2022-08-22T10:47:40.668Z,16
2022-08-22T10:50:13.563Z,13
2022-08-22T10:52:51.433Z,14
2022-08-22T10:55:27.931Z,14
2022-08-22T10:58:00.222Z,12
2022-08-22T11:00:34.953Z,12
2022-08-22T11:03:10.626Z,12
2022-08-22T11:05:55.076Z,12
2022-08-22T11:08:26.624Z,19
2022-08-22T11:11:04.040Z,16
2022-08-22T11:13:36.315Z,17
2022-08-22T11:16:13.608Z,16
2022-08-22T11:18:51.465Z,12
2022-08-22T11:21:45.761Z,15
2022-08-22T11:24:27.442Z,15
2022-08-22T11:27:34.492Z,16
2022-08-22T11:30:18.468Z,12
2022-08-22T11:32:51.970Z,12
2022-08-22T11:35:32.393Z,16
2022-08-22T11:38:08.957Z,16
2022-08-22T11:40:43.588Z,12
2022-08-22T11:43:17.927Z,16
2022-08-22T11:45:51.349Z,20
2022-08-22T11:48:23.965Z,15
2022-08-22T11:50:55.638Z,15
2022-08-22T11:53:29.807Z,12
2022-08-22T11:56:05.364Z,16
2022-08-22T11:58:41.334Z,12
2022-08-22T12:01:17.367Z,12
2022-08-22T12:03:50.989Z,12
2022-08-22T12:06:30.290Z,12
2022-08-22T12:09:10.781Z,12
2022-08-22T12:11:43.399Z,12
2022-08-22T12:14:17.111Z,13
2022-08-22T12:16:56.762Z,12
2022-08-22T12:19:29.649Z,15
2022-08-22T12:22:05.006Z,12
2022-08-22T12:24:39.159Z,16
2022-08-22T12:27:14.874Z,15
2022-08-22T12:30:00.319Z,16
2022-08-22T12:32:32.812Z,12
2022-08-22T12:35:13.560Z,12
2022-08-22T12:38:00.306Z,12
2022-08-22T12:41:07.885Z,16
2022-08-22T12:43:42.596Z,16
2022-08-22T12:46:14.772Z,16
2022-08-22T12:48:48.321Z,16
2022-08-22T12:51:20.815Z,12
2022-08-22T12:53:53.606Z,12
2022-08-22T12:56:26.867Z,12
2022-08-22T12:59:00.364Z,13
2022-08-22T13:01:36.516Z,12
2022-08-22T13:04:19.243Z,16
2022-08-22T13:07:04.925Z,13
2022-08-22T13:09:36.934Z,12
2022-08-22T13:12:09.526Z,12
2022-08-22T13:14:42.352Z,16
2022-08-22T13:17:23.983Z,13
2022-08-22T13:19:57.454Z,16
2022-08-22T13:22:32.262Z,14
2022-08-22T13:25:05.109Z,12
2022-08-22T13:27:40.268Z,16
2022-08-22T13:30:22.770Z,16
2022-08-22T13:32:55.866Z,16
2022-08-22T13:35:30.936Z,12
2022-08-22T13:38:04.683Z,13
2022-08-22T13:40:37.123Z,13
2022-08-22T13:43:15.362Z,12
2022-08-22T13:45:47.703Z,12
2022-08-22T13:51:03.130Z,13
2022-08-22T13:53:39.168Z,16
2022-08-22T13:56:50.658Z,16
2022-08-22T13:59:47.427Z,16
2022-08-22T14:02:36.905Z,15
2022-08-22T14:05:17.217Z,16
2022-08-22T14:10:43.543Z,16
2022-08-22T14:13:46.310Z,15
2022-08-22T14:16:17.993Z,16
2022-08-22T14:18:51.910Z,16
2022-08-22T14:21:24.651Z,16
2022-08-22T14:23:58.192Z,16
2022-08-22T14:26:32.634Z,16
2022-08-22T14:29:18.788Z,20
2022-08-22T14:31:51.640Z,20
2022-08-22T14:34:24.168Z,20
2022-08-22T14:36:56.831Z,24
2022-08-22T14:39:29.270Z,22
2022-08-22T14:42:09.891Z,16
2022-08-22T14:44:45.413Z,22
2022-08-22T14:47:32.472Z,16
2022-08-22T14:51:11.319Z,19
2022-08-22T14:53:44.391Z,16
2022-08-22T14:56:18.081Z,16
2022-08-22T14:58:50.230Z,17
2022-08-22T15:01:22.865Z,16
2022-08-22T15:04:03.350Z,16
2022-08-22T15:06:35.771Z,16
2022-08-22T15:09:08.875Z,20
2022-08-22T15:11:42.125Z,16
2022-08-22T15:14:24.570Z,17
2022-08-22T15:16:57.393Z,16
2022-08-22T15:19:33.443Z,16
2022-08-22T15:22:08.638Z,20
2022-08-22T15:24:50.159Z,16
2022-08-22T15:27:49.583Z,16
2022-08-22T15:30:27.171Z,16
2022-08-22T15:33:01.913Z,18
2022-08-22T15:35:38.895Z,24
2022-08-22T15:38:11.267Z,16
2022-08-22T15:40:47.099Z,24
2022-08-22T15:43:19.646Z,16
2022-08-22T15:45:52.458Z,13
2022-08-22T15:48:25.719Z,16
2022-08-22T15:50:58.269Z,17
2022-08-22T15:53:31.335Z,21
2022-08-22T15:56:05.605Z,20
2022-08-22T15:58:38.179Z,16
2022-08-22T16:01:20.419Z,19
2022-08-22T16:03:53.906Z,12
2022-08-22T16:06:26.379Z,16
2022-08-22T16:08:58.426Z,16
2022-08-22T16:11:33.181Z,16
2022-08-22T16:14:05.289Z,12
2022-08-22T16:16:38.875Z,12
2022-08-22T16:19:11.543Z,13
2022-08-22T16:21:44.338Z,12
2022-08-22T16:24:17.044Z,12
2022-08-22T16:26:49.547Z,12
2022-08-22T16:29:22.235Z,12
2022-08-22T16:31:54.931Z,12
2022-08-22T16:34:31.202Z,15
2022-08-22T16:37:03.897Z,12
2022-08-22T16:39:36.491Z,16
2022-08-22T16:42:09.467Z,12
2022-08-22T16:44:41.894Z,12
2022-08-22T16:47:16.329Z,12
2022-08-22T16:49:48.705Z,12
2022-08-22T16:52:21.162Z,14
2022-08-22T16:54:54.071Z,16
2022-08-22T16:57:26.963Z,16
2022-08-22T16:59:59.723Z,16
2022-08-22T17:02:32.213Z,16
2022-08-22T17:05:04.723Z,13
2022-08-22T17:07:37.491Z,13
2022-08-22T17:10:12.296Z,13
2022-08-22T17:12:44.021Z,12
2022-08-22T17:15:16.837Z,12
2022-08-22T17:17:50.247Z,16
2022-08-22T17:20:22.809Z,12
2022-08-22T17:22:55.633Z,16
2022-08-22T17:25:28.435Z,13
2022-08-22T17:28:01.333Z,16
2022-08-22T17:30:36.216Z,16
2022-08-22T17:33:08.722Z,16
2022-08-22T17:35:41.436Z,19
2022-08-22T17:38:13.952Z,19
2022-08-22T17:40:46.783Z,20
2022-08-22T17:43:19.042Z,16
2022-08-22T17:45:51.743Z,20
2022-08-22T17:48:24.531Z,17
2022-08-22T17:50:57.260Z,20
2022-08-22T17:53:30.079Z,20
2022-08-22T17:56:02.638Z,20
2022-08-22T17:58:38.857Z,17
2022-08-22T18:01:16.215Z,17
2022-08-22T18:03:49.659Z,16
2022-08-22T18:06:22.827Z,17
2022-08-22T18:11:56.801Z,16
2022-08-22T18:14:30.893Z,18
2022-08-22T18:17:03.465Z,16
2022-08-22T18:19:36.501Z,20
2022-08-22T18:22:09.085Z,20
2022-08-22T18:24:43.739Z,20
2022-08-22T18:27:29.528Z,17
2022-08-22T18:30:06.011Z,16
2022-08-22T18:32:38.620Z,20
2022-08-22T18:35:16.842Z,16
2022-08-22T18:37:54.376Z,16
2022-08-22T18:40:27.694Z,12
2022-08-22T18:43:00.695Z,16
2022-08-22T18:45:43.902Z,16
2022-08-22T18:48:15.550Z,18
2022-08-22T18:50:48.242Z,20
2022-08-22T18:53:20.899Z,24
2022-08-22T18:55:53.606Z,20
2022-08-22T18:58:26.342Z,20
2022-08-22T19:00:58.811Z,24
2022-08-22T19:03:36.031Z,20
2022-08-22T19:06:07.556Z,20
2022-08-22T19:08:39.962Z,24
2022-08-22T19:11:13.480Z,24
2022-08-22T19:13:46.044Z,28
2022-08-22T19:16:18.722Z,24
2022-08-22T19:18:51.346Z,28
2022-08-22T19:21:24.299Z,24
2022-08-22T19:23:56.847Z,24
2022-08-22T19:26:40.565Z,20
2022-08-22T19:29:20.907Z,24
2022-08-22T19:31:53.257Z,20
2022-08-22T19:34:27.571Z,24
2022-08-22T19:37:00.622Z,26
2022-08-22T19:39:33.280Z,20
2022-08-22T19:42:06.884Z,24
2022-08-22T19:44:44.987Z,20
2022-08-22T19:47:17.629Z,20
2022-08-22T19:49:50.083Z,29
2022-08-22T19:52:24.644Z,28
2022-08-22T19:54:57.086Z,28
2022-08-22T19:57:29.767Z,20
2022-08-22T20:00:02.214Z,28
2022-08-22T20:02:34.870Z,24
2022-08-22T20:05:07.500Z,21
2022-08-22T20:07:40.127Z,21
2022-08-22T20:10:15.555Z,23
2022-08-22T20:12:48.314Z,20
2022-08-22T20:15:21.563Z,28
2022-08-22T20:21:41.029Z,27
2022-08-22T20:24:14.849Z,20
2022-08-22T20:27:03.597Z,20
2022-08-22T20:29:47.017Z,20
2022-08-22T20:32:19.281Z,15
2022-08-22T20:34:51.804Z,18
2022-08-22T20:37:35.727Z,20
2022-08-22T20:40:53.653Z,16
2022-08-22T20:43:30.996Z,17
2022-08-22T20:46:04.167Z,19
2022-08-22T20:48:36.305Z,20
2022-08-22T20:51:11.372Z,20
2022-08-22T20:53:43.514Z,28
2022-08-22T20:56:20.322Z,32
2022-08-22T20:58:52.784Z,24
2022-08-22T21:01:27.395Z,24
2022-08-22T21:04:00.416Z,20
2022-08-22T21:06:32.281Z,20
2022-08-22T21:09:05.776Z,20
2022-08-22T21:11:38.061Z,16
2022-08-22T21:14:10.895Z,20
2022-08-22T21:16:43.527Z,20
2022-08-22T21:19:15.971Z,20
2022-08-22T21:21:47.283Z,20
2022-08-22T21:24:19.331Z,19
2022-08-22T21:26:51.645Z,20
2022-08-22T21:29:24.006Z,16
2022-08-22T21:31:59.355Z,20
2022-08-22T21:34:35.544Z,16
2022-08-22T21:37:07.841Z,19
2022-08-22T21:39:40.545Z,16
2022-08-22T21:42:13.142Z,16
2022-08-22T21:44:45.596Z,19
2022-08-22T21:47:30.343Z,12
2022-08-22T21:50:02.214Z,16
2022-08-22T21:52:34.632Z,19
2022-08-22T21:55:07.165Z,16
2022-08-22T21:57:42.680Z,18
2022-08-22T22:00:14.359Z,16
2022-08-22T22:02:50.136Z,16
2022-08-22T22:05:22.786Z,16
2022-08-22T22:07:55.342Z,28
2022-08-22T22:10:28.146Z,16
2022-08-22T22:13:00.740Z,17
2022-08-22T22:15:35.890Z,20
2022-08-22T22:18:06.797Z,16
2022-08-22T22:20:39.024Z,17
2022-08-22T22:23:11.388Z,17
2022-08-22T22:25:43.625Z,16
2022-08-22T22:28:15.940Z,20
2022-08-22T22:30:47.810Z,16
2022-08-22T22:33:20.002Z,17
2022-08-22T22:35:52.660Z,16
2022-08-22T22:38:25.435Z,16
2022-08-22T22:40:58.108Z,16
2022-08-22T22:43:32.775Z,16
2022-08-22T22:46:07.289Z,17
2022-08-22T22:48:39.720Z,17
2022-08-22T22:51:15.300Z,16
2022-08-22T22:53:45.742Z,16
2022-08-22T22:56:17.460Z,16
2022-08-22T22:58:59.134Z,16
2022-08-22T23:01:45.364Z,16
2022-08-22T23:04:18.290Z,16
2022-08-22T23:06:50.432Z,20
2022-08-22T23:09:22.505Z,16
2022-08-22T23:12:16.191Z,16
2022-08-22T23:14:48.669Z,16
2022-08-22T23:17:20.947Z,16
2022-08-22T23:19:53.465Z,16
2022-08-22T23:22:26.646Z,16
2022-08-22T23:24:58.979Z,16
2022-08-22T23:27:31.589Z,16
2022-08-22T23:30:04.280Z,19
2022-08-22T23:32:36.443Z,17
2022-08-22T23:35:09.102Z,20
2022-08-22T23:37:41.788Z,20
2022-08-22T23:40:14.715Z,16
2022-08-22T23:42:47.519Z,16
2022-08-22T23:45:19.896Z,16
2022-08-22T23:47:55.158Z,16
2022-08-22T23:50:27.689Z,16
2022-08-22T23:52:59.898Z,15
2022-08-22T23:55:32.510Z,15
2022-08-22T23:58:05.149Z,16
